Map

Track Data

SID SEASON NUMBER BASIN SUBBASIN NAME ISO_TIME NATURE LAT LON WMO_WIND WMO_PRES WMO_AGENCY TRACK_TYPE DIST2LAND LANDFALL IFLAG USA_AGENCY USA_ATCF_ID USA_LAT USA_LON USA_RECORD USA_STATUS USA_WIND USA_PRES USA_SSHS USA_R34_NE USA_R34_SE USA_R34_SW USA_R34_NW USA_R50_NE USA_R50_SE USA_R50_SW USA_R50_NW USA_R64_NE USA_R64_SE USA_R64_SW USA_R64_NW USA_POCI USA_ROCI USA_RMW USA_EYE TOKYO_LAT TOKYO_LON TOKYO_GRADE TOKYO_WIND TOKYO_PRES TOKYO_R50_DIR TOKYO_R50_LONG TOKYO_R50_SHORT TOKYO_R30_DIR TOKYO_R30_LONG TOKYO_R30_SHORT TOKYO_LAND CMA_LAT CMA_LON CMA_CAT CMA_WIND CMA_PRES HKO_LAT HKO_LON HKO_CAT HKO_WIND HKO_PRES NEWDELHI_LAT NEWDELHI_LON NEWDELHI_GRADE NEWDELHI_WIND NEWDELHI_PRES NEWDELHI_CI NEWDELHI_DP NEWDELHI_POCI REUNION_LAT REUNION_LON REUNION_TYPE REUNION_WIND REUNION_PRES REUNION_TNUM REUNION_CI REUNION_RMW REUNION_R34_NE REUNION_R34_SE REUNION_R34_SW REUNION_R34_NW REUNION_R50_NE REUNION_R50_SE REUNION_R50_SW REUNION_R50_NW REUNION_R64_NE REUNION_R64_SE REUNION_R64_SW REUNION_R64_NW BOM_LAT BOM_LON BOM_TYPE BOM_WIND BOM_PRES BOM_TNUM BOM_CI BOM_RMW BOM_R34_NE BOM_R34_SE BOM_R34_SW BOM_R34_NW BOM_R50_NE BOM_R50_SE BOM_R50_SW BOM_R50_NW BOM_R64_NE BOM_R64_SE BOM_R64_SW BOM_R64_NW BOM_ROCI BOM_POCI BOM_EYE BOM_POS_METHOD BOM_PRES_METHOD NADI_LAT NADI_LON NADI_CAT NADI_WIND NADI_PRES WELLINGTON_LAT WELLINGTON_LON WELLINGTON_WIND WELLINGTON_PRES DS824_LAT DS824_LON DS824_STAGE DS824_WIND DS824_PRES TD9636_LAT TD9636_LON TD9636_STAGE TD9636_WIND TD9636_PRES TD9635_LAT TD9635_LON TD9635_WIND TD9635_PRES TD9635_ROCI NEUMANN_LAT NEUMANN_LON NEUMANN_CLASS NEUMANN_WIND NEUMANN_PRES MLC_LAT MLC_LON MLC_CLASS MLC_WIND MLC_PRES USA_GUST BOM_GUST BOM_GUST_PER REUNION_GUST REUNION_GUST_PER USA_SEAHGT USA_SEARAD_NE USA_SEARAD_SE USA_SEARAD_SW USA_SEARAD_NW STORM_SPEED STORM_DIR
1975313N17275 1975 129 NA CS NOT_NAMED 1975-11-08 12:00:00 TS 16.5000 -85.0000 25 hurdat_atl main 67 67 O_____________ hurdat_atl AL211975 16.5000 -85.0000 TD 25 -1 5 347
1975313N17275 1975 129 NA CS NOT_NAMED 1975-11-08 15:00:00 TS 16.7499 -85.0551 main 89 89 P_____________ AL211975 16.7499 -85.0551 TD 25 -1 5 339
1975313N17275 1975 129 NA CS NOT_NAMED 1975-11-08 18:00:00 TS 17.0000 -85.2000 25 hurdat_atl main 123 123 O_____________ hurdat_atl AL211975 17.0000 -85.2000 TD 25 -1 7 321
1975313N17275 1975 129 NA CS NOT_NAMED 1975-11-08 21:00:00 TS 17.2501 -85.4849 main 156 156 P_____________ AL211975 17.2501 -85.4849 TD 27 -1 8 311
1975313N17275 1975 129 NA CS NOT_NAMED 1975-11-09 00:00:00 TS 17.5000 -85.8000 30 hurdat_atl main 179 179 O_____________ hurdat_atl AL211975 17.5000 -85.8000 TD 30 -1 7 314
1975313N17275 1975 129 NA CS NOT_NAMED 1975-11-09 03:00:00 TS 17.7499 -86.0226 main 198 170 P_____________ AL211975 17.7499 -86.0226 TD 30 -1 6 323
1975313N17275 1975 129 NA CS NOT_NAMED 1975-11-09 06:00:00 TS 18.0000 -86.2000 30 hurdat_atl main 170 144 O_____________ hurdat_atl AL211975 18.0000 -86.2000 TD 30 -1 6 324
1975313N17275 1975 129 NA CS NOT_NAMED 1975-11-09 09:00:00 TS 18.2050 -86.3651 main 144 124 P_____________ AL211975 18.2050 -86.3651 TD 30 -1 6 330
1975313N17275 1975 129 NA CS NOT_NAMED 1975-11-09 12:00:00 TS 18.5000 -86.5000 30 hurdat_atl main 124 97 O_____________ hurdat_atl AL211975 18.5000 -86.5000 TD 30 -1 8 343
1975313N17275 1975 129 NA CS NOT_NAMED 1975-11-09 15:00:00 TS 18.9975 -86.6150 main 97 73 P_____________ AL211975 18.9975 -86.6150 TD 30 -1 11 350
1975313N17275 1975 129 NA CS NOT_NAMED 1975-11-09 18:00:00 TS 19.6000 -86.7000 30 hurdat_atl main 74 61 O_____________ hurdat_atl AL211975 19.6000 -86.7000 TD 30 -1 13 354
1975313N17275 1975 129 NA CS NOT_NAMED 1975-11-09 21:00:00 TS 20.2375 -86.7576 main 61 10 P_____________ AL211975 20.2375 -86.7576 TD 30 -1 12 355
1975313N17275 1975 129 NA CS NOT_NAMED 1975-11-10 00:00:00 TS 20.8000 -86.8000 30 hurdat_atl main 10 0 O_____________ hurdat_atl AL211975 20.8000 -86.8000 TD 30 -1 8 354
1975313N17275 1975 129 NA CS NOT_NAMED 1975-11-10 03:00:00 TS 21.0700 -86.8501 main 0 0 P_____________ AL211975 21.0700 -86.8501 TD 30 -1 6 351
1975313N17275 1975 129 NA NA NOT_NAMED 1975-11-10 06:00:00 TS 21.4000 -86.9000 30 hurdat_atl main 0 0 O_____________ hurdat_atl AL211975 21.4000 -86.9000 TD 30 -1 12 358
1975313N17275 1975 129 NA GM NOT_NAMED 1975-11-10 09:00:00 TS 22.2298 -86.8903 main 78 78 P_____________ AL211975 22.2298 -86.8903 TD 30 -1 16 357
1975313N17275 1975 129 NA GM NOT_NAMED 1975-11-10 12:00:00 TS 23.0000 -87.0000 30 hurdat_atl main 167 167 O_____________ hurdat_atl AL211975 23.0000 -87.0000 TD 30 -1 11 335
1975313N17275 1975 129 NA GM NOT_NAMED 1975-11-10 15:00:00 TS 23.1977 -87.3904 main 192 190 P_____________ AL211975 23.1977 -87.3904 TD 30 -1 9 284
1975313N17275 1975 129 NA GM NOT_NAMED 1975-11-10 18:00:00 TS 23.2000 -87.9000 30 hurdat_atl main 190 190 O_____________ hurdat_atl AL211975 23.2000 -87.9000 TD 30 -1 9 279
1975313N17275 1975 129 NA GM NOT_NAMED 1975-11-10 21:00:00 TS 23.3424 -88.3575 main 201 201 P_____________ AL211975 23.3424 -88.3575 TD 30 -1 9 290
1975313N17275 1975 129 NA GM NOT_NAMED 1975-11-11 00:00:00 TS 23.5000 -88.8000 30 hurdat_atl main 224 224 O_____________ hurdat_atl AL211975 23.5000 -88.8000 TD 30 -1 8 292
1975313N17275 1975 129 NA GM NOT_NAMED 1975-11-11 03:00:00 TS 23.6573 -89.2001 main 253 253 P_____________ AL211975 23.6573 -89.2001 TD 30 -1 8 292
1975313N17275 1975 129 NA GM NOT_NAMED 1975-11-11 06:00:00 TS 23.8000 -89.6000 30 hurdat_atl main 276 276 O_____________ hurdat_atl AL211975 23.8000 -89.6000 TD 30 -1 9 292
1975313N17275 1975 129 NA GM NOT_NAMED 1975-11-11 09:00:00 TS 23.9826 -90.0720 main 312 312 P_____________ AL211975 23.9826 -90.0720 TD 27 -1 8 284
1975313N17275 1975 129 NA GM NOT_NAMED 1975-11-11 12:00:00 TS 24.0000 -90.5000 25 hurdat_atl main 319 291 O_____________ hurdat_atl AL211975 24.0000 -90.5000 TD 25 -1 7 244
1975313N17275 1975 129 NA GM NOT_NAMED 1975-11-11 15:00:00 TS 23.6673 -90.7803 main 294 245 P_____________ AL211975 23.6673 -90.7803 TD 25 -1 9 210
1975313N17275 1975 129 NA GM NOT_NAMED 1975-11-11 18:00:00 TS 23.2000 -91.0000 25 hurdat_atl main 245 221 O_____________ hurdat_atl AL211975 23.2000 -91.0000 TD 25 -1 10 211
1975313N17275 1975 129 NA GM NOT_NAMED 1975-11-11 21:00:00 TS 22.8501 -91.3103 main 226 199 P_____________ AL211975 22.8501 -91.3103 TD 25 -1 8 213
1975313N17275 1975 129 NA GM NOT_NAMED 1975-11-12 00:00:00 TS 22.5000 -91.5000 25 hurdat_atl main 199 159 O_____________ hurdat_atl AL211975 22.5000 -91.5000 TD 25 -1 8 186
1975313N17275 1975 129 NA GM NOT_NAMED 1975-11-12 03:00:00 TS 22.1000 -91.4020 main 159 114 P_____________ AL211975 22.1000 -91.4020 TD 22 -1 9 161
1975313N17275 1975 129 NA GM NOT_NAMED 1975-11-12 06:00:00 TS 21.7000 -91.2000 20 hurdat_atl main 114 89 O_____________ hurdat_atl AL211975 21.7000 -91.2000 TD 20 -1 8 161
1975313N17275 1975 129 NA GM NOT_NAMED 1975-11-12 09:00:00 TS 21.3424 -91.1153 main 85 66 P_____________ AL211975 21.3424 -91.1153 TD 20 -1 7 165
1975313N17275 1975 129 NA GM NOT_NAMED 1975-11-12 12:00:00 TS 21.0000 -91.0000 20 hurdat_atl main 66 38 O_____________ hurdat_atl AL211975 21.0000 -91.0000 TD 20 -1 8 156
1975313N17275 1975 129 NA GM NOT_NAMED 1975-11-12 15:00:00 TS 20.6527 -90.7821 main 38 0 P_____________ AL211975 20.6527 -90.7821 TD -1 8 146
1975313N17275 1975 129 NA GM NOT_NAMED 1975-11-12 18:00:00 TS 20.3000 -90.5000 hurdat_atl main 0 O_____________ hurdat_atl AL211975 20.3000 -90.5000 TD -1 9 143

About IBTrACS Database

This database is a web-friendly format of International Best Track Archive for Climate Stewardship (IBTrACS), a global best track data archive curated by NOAA dating back to 1842.

Updated: 2021-11-26